Time;durP1;ratioP1;P1;durP2;ratioP2;P2;SDS_P1;SDS_P2;PMS_P1;PMS_P2;Temp;Humidity;BMP_temperature;BMP_pressure;BME280_temperature;BME280_humidity;BME280_pressure;Samples;Min_cycle;Max_cycle;Signal;HPM_P1;HPM_P2
2021/05/09 00:01:53;;;;;;;3.47;1.55;;;13.60;97.40;;;;;;5033034;28;20044;-84
2021/05/09 00:04:23;;;;;;;5.30;2.20;;;13.60;97.40;;;;;;5068296;28;20050;-83
2021/05/09 00:06:53;;;;;;;5.97;1.75;;;13.60;97.30;;;;;;5036452;28;20035;-84
2021/05/09 00:09:23;;;;;;;3.65;2.30;;;13.50;97.40;;;;;;5052287;28;20043;-84
2021/05/09 00:11:50;;;;;;;3.35;1.38;;;13.50;97.50;;;;;;5062995;28;20494;-84
2021/05/09 00:14:19;;;;;;;3.72;1.00;;;13.40;97.50;;;;;;5080885;28;20044;-84
2021/05/09 00:16:46;;;;;;;3.13;1.58;;;13.40;97.60;;;;;;5065859;28;20046;-84
2021/05/09 00:19:12;;;;;;;5.25;2.08;;;13.40;97.60;;;;;;5032819;28;20422;-84
2021/05/09 00:21:39;;;;;;;2.67;1.58;;;13.40;97.60;;;;;;5046710;28;20044;-85
2021/05/09 00:24:10;;;;;;;3.75;2.50;;;13.30;97.70;;;;;;5050690;28;20033;-84
2021/05/09 00:26:36;;;;;;;7.15;1.90;;;13.30;97.70;;;;;;5055852;28;20047;-84
2021/05/09 00:29:10;;;;;;;2.20;1.20;;;13.30;97.80;;;;;;5045316;28;20418;-84
2021/05/09 00:31:37;;;;;;;4.03;1.80;;;13.30;97.80;;;;;;5047346;28;20865;-84
2021/05/09 00:34:03;;;;;;;5.15;1.85;;;13.20;97.80;;;;;;5052656;28;20047;-84
2021/05/09 00:36:33;;;;;;;3.47;1.80;;;13.20;97.80;;;;;;5068035;28;20044;-84
2021/05/09 00:39:02;;;;;;;5.07;2.15;;;13.10;97.90;;;;;;5046090;28;20048;-84
2021/05/09 00:41:29;;;;;;;4.35;2.10;;;13.10;98.00;;;;;;5048565;28;20051;-84
2021/05/09 00:43:55;;;;;;;2.95;2.00;;;13.10;98.00;;;;;;5052351;28;20028;-84
2021/05/09 00:46:22;;;;;;;3.38;1.42;;;13.10;98.00;;;;;;5036568;28;20028;-84
2021/05/09 00:48:51;;;;;;;3.90;1.23;;;13.10;98.10;;;;;;5060005;28;20419;-84
2021/05/09 00:51:17;;;;;;;4.70;2.10;;;13.10;98.10;;;;;;5044720;28;20052;-83
2021/05/09 00:53:45;;;;;;;6.03;2.22;;;13.10;98.10;;;;;;5042156;28;20504;-84
2021/05/09 00:56:16;;;;;;;3.00;1.30;;;13.00;98.10;;;;;;5062317;28;20555;-84
2021/05/09 00:58:46;;;;;;;5.07;1.60;;;13.00;98.20;;;;;;5066735;28;20043;-84
2021/05/09 01:01:15;;;;;;;4.10;1.70;;;13.00;98.20;;;;;;5055997;28;20050;-84
2021/05/09 01:03:49;;;;;;;2.13;1.05;;;13.00;98.30;;;;;;5070351;28;20036;-84
2021/05/09 01:06:16;;;;;;;2.33;0.88;;;12.90;98.30;;;;;;5048578;28;20048;-84
2021/05/09 01:08:43;;;;;;;3.72;1.13;;;12.90;98.60;;;;;;5041956;28;20047;-84
2021/05/09 01:11:10;;;;;;;2.72;0.95;;;12.80;98.40;;;;;;5046333;28;20047;-84
2021/05/09 01:13:36;;;;;;;3.10;1.20;;;12.70;98.40;;;;;;5051575;28;20043;-83
2021/05/09 01:16:03;;;;;;;1.73;0.82;;;12.70;98.50;;;;;;5035916;28;20039;-84
2021/05/09 01:18:30;;;;;;;3.45;1.52;;;12.60;98.60;;;;;;5050926;28;20051;-84
2021/05/09 01:20:58;;;;;;;3.17;1.33;;;12.60;98.70;;;;;;5067515;28;20039;-84
2021/05/09 01:23:27;;;;;;;2.17;1.42;;;12.50;98.70;;;;;;5071558;28;20062;-84
2021/05/09 01:25:54;;;;;;;2.83;1.40;;;12.40;99.00;;;;;;5069322;28;20040;-84
2021/05/09 01:28:21;;;;;;;3.63;1.88;;;12.30;98.80;;;;;;5055702;28;20043;-84
2021/05/09 01:30:48;;;;;;;4.55;1.30;;;12.30;98.90;;;;;;5037352;28;20050;-84
2021/05/09 01:33:18;;;;;;;3.33;1.38;;;12.20;99.00;;;;;;5052394;28;20036;-84
2021/05/09 01:35:45;;;;;;;2.75;1.80;;;12.20;99.00;;;;;;5038412;28;20398;-84
2021/05/09 01:38:12;;;;;;;3.78;1.60;;;12.10;99.10;;;;;;5054636;28;20039;-84
2021/05/09 01:40:41;;;;;;;4.38;1.30;;;12.00;99.10;;;;;;5068135;28;20036;-84
2021/05/09 01:43:07;;;;;;;2.90;1.50;;;12.00;99.20;;;;;;5087990;28;20051;-84
2021/05/09 01:45:34;;;;;;;2.95;1.42;;;11.90;99.20;;;;;;5052599;28;20046;-84
2021/05/09 01:48:03;;;;;;;3.80;1.75;;;11.80;99.30;;;;;;5054515;28;20051;-84
2021/05/09 01:50:32;;;;;;;3.45;1.73;;;11.70;99.30;;;;;;5052260;28;20055;-83
2021/05/09 01:53:05;;;;;;;3.88;1.63;;;11.70;99.40;;;;;;5053427;28;20031;-83
2021/05/09 01:55:33;;;;;;;3.55;2.05;;;11.60;99.50;;;;;;5066393;28;20040;-84
2021/05/09 01:58:09;;;;;;;3.25;1.60;;;11.60;99.50;;;;;;5058437;28;20067;-83
2021/05/09 02:00:47;;;;;;;7.43;2.03;;;11.50;99.50;;;;;;5034119;28;20035;-83
2021/05/09 02:03:24;;;;;;;4.25;1.63;;;11.40;99.60;;;;;;5042989;28;20370;-84
2021/05/09 02:05:51;;;;;;;2.90;1.65;;;11.40;99.60;;;;;;5071357;28;20036;-83
2021/05/09 02:08:21;;;;;;;5.20;1.75;;;11.30;99.60;;;;;;5044892;28;20046;-83
2021/05/09 02:10:52;;;;;;;4.05;1.63;;;11.30;99.70;;;;;;5031185;28;20137;-83
2021/05/09 02:13:27;;;;;;;6.30;1.35;;;11.20;99.70;;;;;;5027580;28;20039;-83
2021/05/09 02:16:04;;;;;;;5.13;1.90;;;11.20;99.70;;;;;;5030469;28;20043;-84
2021/05/09 02:18:30;;;;;;;3.45;1.85;;;11.10;99.80;;;;;;5036921;28;20048;-84
2021/05/09 02:20:57;;;;;;;3.08;1.40;;;11.10;99.80;;;;;;5027717;28;20059;-83
2021/05/09 02:23:23;;;;;;;3.42;1.88;;;11.10;99.80;;;;;;5042757;28;20047;-84
2021/05/09 02:25:50;;;;;;;3.78;1.80;;;11.00;99.80;;;;;;5021942;28;20024;-84
2021/05/09 02:28:18;;;;;;;3.58;1.33;;;11.00;99.80;;;;;;5037516;28;20035;-84
2021/05/09 02:30:46;;;;;;;3.00;1.77;;;11.00;99.90;;;;;;5053494;28;20036;-83
2021/05/09 02:33:14;;;;;;;5.18;2.15;;;11.00;99.90;;;;;;5052255;28;20047;-84
2021/05/09 02:35:44;;;;;;;4.28;1.50;;;10.90;99.90;;;;;;5053594;28;20054;-84
2021/05/09 02:38:13;;;;;;;5.28;2.00;;;10.90;99.90;;;;;;5058146;28;20335;-84
2021/05/09 02:40:40;;;;;;;5.20;2.50;;;10.80;99.90;;;;;;5038121;28;20040;-84
2021/05/09 02:43:07;;;;;;;5.10;2.95;;;10.80;99.90;;;;;;5037656;28;20040;-84
2021/05/09 02:45:35;;;;;;;6.03;3.08;;;10.80;99.90;;;;;;5020215;28;20040;-84
2021/05/09 02:48:02;;;;;;;4.22;2.58;;;10.80;99.90;;;;;;5038283;28;20042;-83
2021/05/09 02:50:32;;;;;;;4.88;2.17;;;10.70;99.90;;;;;;5038464;28;20052;-84
2021/05/09 02:53:01;;;;;;;4.10;2.45;;;10.70;99.90;;;;;;5039339;28;20475;-85
2021/05/09 02:55:28;;;;;;;4.35;1.90;;;10.70;99.90;;;;;;5021361;28;20075;-84
2021/05/09 02:57:56;;;;;;;4.05;2.55;;;10.70;99.90;;;;;;5038929;28;20048;-84
2021/05/09 03:00:23;;;;;;;4.63;2.72;;;10.70;99.90;;;;;;5036996;28;20036;-84
2021/05/09 03:02:53;;;;;;;4.90;2.03;;;10.70;99.90;;;;;;5048732;28;20487;-85
2021/05/09 03:05:26;;;;;;;4.05;2.10;;;10.70;99.90;;;;;;5041359;28;20036;-85
2021/05/09 03:07:53;;;;;;;5.72;3.25;;;10.70;99.90;;;;;;5035245;28;20036;-84
2021/05/09 03:10:20;;;;;;;4.38;2.22;;;10.70;99.90;;;;;;5035145;28;20170;-85
2021/05/09 03:12:46;;;;;;;3.80;2.10;;;10.70;99.90;;;;;;5016720;28;20044;-84
2021/05/09 03:15:16;;;;;;;2.97;1.83;;;10.70;99.90;;;;;;5029723;28;20040;-85
2021/05/09 03:17:42;;;;;;;3.78;1.90;;;10.70;99.90;;;;;;5034227;28;20036;-84
2021/05/09 03:20:10;;;;;;;4.43;2.22;;;10.70;99.90;;;;;;5031071;28;20033;-83
2021/05/09 03:22:36;;;;;;;4.80;1.90;;;10.60;99.90;;;;;;5016671;28;20045;-84
2021/05/09 03:25:03;;;;;;;5.82;2.33;;;10.60;99.90;;;;;;5017242;28;20036;-84
2021/05/09 03:27:30;;;;;;;5.70;2.63;;;10.60;99.90;;;;;;5050990;28;20058;-84
2021/05/09 03:29:57;;;;;;;2.72;1.70;;;10.60;99.90;;;;;;5032393;28;20036;-84
2021/05/09 03:32:26;;;;;;;5.07;1.98;;;10.60;99.90;;;;;;5032820;28;20408;-84
2021/05/09 03:34:53;;;;;;;4.70;2.20;;;10.60;99.90;;;;;;5016842;28;20044;-84
2021/05/09 03:37:21;;;;;;;4.78;1.92;;;10.60;99.90;;;;;;5032302;28;20040;-84
2021/05/09 03:39:47;;;;;;;3.53;2.40;;;10.60;99.90;;;;;;5064423;28;20075;-83
2021/05/09 03:42:14;;;;;;;4.28;2.17;;;10.60;99.90;;;;;;5027630;28;20059;-84
2021/05/09 03:44:41;;;;;;;3.28;2.28;;;10.60;99.90;;;;;;5032577;28;20040;-84
2021/05/09 03:47:07;;;;;;;3.70;1.80;;;10.60;99.90;;;;;;5018040;28;20036;-84
2021/05/09 03:49:34;;;;;;;6.32;2.55;;;10.60;99.90;;;;;;5014726;28;20036;-84
2021/05/09 03:52:01;;;;;;;3.15;2.03;;;10.60;99.90;;;;;;5009473;28;20040;-84
2021/05/09 03:54:27;;;;;;;4.30;3.38;;;10.70;99.90;;;;;;5033187;28;20048;-84
2021/05/09 03:56:54;;;;;;;3.80;2.70;;;10.70;99.90;;;;;;5033326;28;20052;-84
2021/05/09 03:59:20;;;;;;;4.20;1.98;;;10.70;99.90;;;;;;5012784;28;20044;-84
2021/05/09 04:01:47;;;;;;;3.85;1.88;;;10.70;99.90;;;;;;5032276;28;20054;-84
2021/05/09 04:04:14;;;;;;;4.55;2.67;;;10.70;99.90;;;;;;5049679;28;20059;-84
2021/05/09 04:06:41;;;;;;;4.35;2.70;;;10.70;99.90;;;;;;5052267;28;20044;-84
2021/05/09 04:09:08;;;;;;;6.10;2.47;;;10.70;99.90;;;;;;5030763;28;20044;-84
2021/05/09 04:11:35;;;;;;;3.67;1.85;;;10.70;99.90;;;;;;5023875;28;20535;-84
2021/05/09 04:14:01;;;;;;;3.42;1.95;;;10.80;99.90;;;;;;5016657;28;20032;-84
2021/05/09 04:16:34;;;;;;;4.97;2.05;;;10.80;99.90;;;;;;5045148;28;20052;-84
2021/05/09 04:19:03;;;;;;;2.47;1.58;;;10.80;99.90;;;;;;5015819;28;20415;-84
2021/05/09 04:21:30;;;;;;;2.90;1.77;;;10.90;99.90;;;;;;4997431;28;20055;-84
2021/05/09 04:23:56;;;;;;;6.28;2.50;;;10.90;99.90;;;;;;5016033;28;20032;-84
2021/05/09 04:26:26;;;;;;;3.70;2.20;;;11.00;99.90;;;;;;5064286;28;20386;-84
2021/05/09 04:28:52;;;;;;;6.50;3.13;;;11.00;99.90;;;;;;5040386;28;20608;-83
2021/05/09 04:31:19;;;;;;;3.90;2.00;;;11.10;99.90;;;;;;5047039;28;20055;-83
2021/05/09 04:33:45;;;;;;;3.67;2.72;;;11.10;99.90;;;;;;5001705;28;20506;-83
2021/05/09 04:36:12;;;;;;;4.05;1.85;;;11.20;99.90;;;;;;5016124;28;20414;-83
2021/05/09 04:38:38;;;;;;;3.22;1.90;;;11.30;99.90;;;;;;5030431;28;20048;-83
2021/05/09 04:41:07;;;;;;;2.33;1.63;;;11.40;99.90;;;;;;5046356;28;20075;-84
2021/05/09 04:43:35;;;;;;;3.38;2.15;;;11.40;99.90;;;;;;5032699;28;20067;-84
2021/05/09 04:46:03;;;;;;;5.05;2.58;;;11.50;99.90;;;;;;5015593;28;20041;-83
2021/05/09 04:48:29;;;;;;;4.65;2.67;;;11.60;99.90;;;;;;5048883;28;20043;-84
2021/05/09 04:50:58;;;;;;;4.63;2.30;;;11.70;99.90;;;;;;5048136;28;20054;-84
2021/05/09 04:53:36;;;;;;;3.42;2.08;;;11.80;99.90;;;;;;5047794;28;20044;-83
2021/05/09 04:56:06;;;;;;;5.30;2.35;;;11.90;99.90;;;;;;5037061;28;20039;-83
2021/05/09 04:58:42;;;;;;;4.32;2.15;;;12.00;99.80;;;;;;5051569;28;20051;-84
2021/05/09 05:01:11;;;;;;;4.88;2.45;;;12.10;99.70;;;;;;5050453;28;20045;-83
2021/05/09 05:03:38;;;;;;;4.70;2.85;;;12.20;99.70;;;;;;5035133;28;20507;-83
2021/05/09 05:06:06;;;;;;;5.07;3.33;;;12.20;99.70;;;;;;5054289;28;20036;-84
2021/05/09 05:08:34;;;;;;;7.65;3.85;;;12.30;99.70;;;;;;5051257;28;20051;-84
2021/05/09 05:11:02;;;;;;;7.30;4.07;;;12.40;99.60;;;;;;5056752;28;20050;-83
2021/05/09 05:13:34;;;;;;;7.28;4.70;;;12.50;99.60;;;;;;5068399;28;20044;-83
2021/05/09 05:16:03;;;;;;;7.50;4.13;;;12.60;99.50;;;;;;5053096;28;20047;-83
2021/05/09 05:18:33;;;;;;;7.13;4.90;;;12.80;99.40;;;;;;5056710;28;20048;-83
2021/05/09 05:21:04;;;;;;;8.57;5.65;;;13.00;99.20;;;;;;5059546;28;20062;-83
2021/05/09 05:23:34;;;;;;;10.00;5.53;;;13.10;98.90;;;;;;5058533;28;20056;-84
2021/05/09 05:26:04;;;;;;;10.68;6.00;;;13.30;98.60;;;;;;5038925;28;20410;-84
2021/05/09 05:28:31;;;;;;;8.52;4.25;;;13.40;98.50;;;;;;5039969;28;20034;-83
2021/05/09 05:30:59;;;;;;;7.32;4.80;;;13.50;98.30;;;;;;5038331;28;20044;-83
2021/05/09 05:33:32;;;;;;;8.05;4.88;;;13.60;98.00;;;;;;5038295;28;20036;-83
2021/05/09 05:36:03;;;;;;;8.13;4.80;;;13.70;97.90;;;;;;5042033;28;20047;-83
2021/05/09 05:38:30;;;;;;;7.53;3.97;;;13.80;97.70;;;;;;5072399;28;20055;-84
2021/05/09 05:40:57;;;;;;;6.80;3.97;;;13.80;97.50;;;;;;5040135;28;20046;-84
2021/05/09 05:43:27;;;;;;;5.25;3.10;;;13.90;97.50;;;;;;5062211;28;20040;-83
2021/05/09 05:45:58;;;;;;;7.18;4.13;;;13.90;97.40;;;;;;5069540;28;20044;-83
2021/05/09 05:48:26;;;;;;;6.47;4.80;;;14.00;97.30;;;;;;5042669;28;20393;-83
2021/05/09 05:50:53;;;;;;;6.82;3.80;;;14.10;97.00;;;;;;5021836;28;20040;-83
2021/05/09 05:53:22;;;;;;;6.30;4.18;;;14.10;96.70;;;;;;5056480;28;20516;-84
2021/05/09 05:55:52;;;;;;;4.63;3.80;;;14.10;96.70;;;;;;5039467;28;20042;-83
2021/05/09 05:58:24;;;;;;;6.85;4.03;;;14.00;96.60;;;;;;5063450;28;20039;-83
2021/05/09 06:00:51;;;;;;;6.63;4.10;;;14.00;96.60;;;;;;5069496;28;20044;-83
2021/05/09 06:03:18;;;;;;;9.25;4.35;;;14.00;96.60;;;;;;5035640;28;20056;-83
2021/05/09 06:05:45;;;;;;;6.93;3.92;;;14.00;96.60;;;;;;5049956;28;20024;-84
2021/05/09 06:08:13;;;;;;;7.63;4.13;;;14.00;96.60;;;;;;5042586;28;20031;-84
2021/05/09 06:10:46;;;;;;;5.03;2.50;;;14.00;96.60;;;;;;5061886;28;20046;-83
2021/05/09 06:13:13;;;;;;;9.35;3.95;;;14.20;96.70;;;;;;5054213;28;20486;-83
2021/05/09 06:15:40;;;;;;;7.20;3.88;;;14.40;96.60;;;;;;5059365;28;20429;-84
2021/05/09 06:18:06;;;;;;;6.03;3.03;;;14.70;96.30;;;;;;5051783;27;20429;-84
2021/05/09 06:20:33;;;;;;;5.05;3.30;;;14.90;95.90;;;;;;5036400;28;20043;-84
2021/05/09 06:23:04;;;;;;;5.47;2.80;;;15.20;95.60;;;;;;5069006;28;20035;-84
2021/05/09 06:25:32;;;;;;;7.20;2.60;;;15.40;95.10;;;;;;5086118;28;20038;-85
2021/05/09 06:27:59;;;;;;;5.10;2.40;;;15.60;94.60;;;;;;5054724;28;20031;-84
2021/05/09 06:30:25;;;;;;;3.60;2.05;;;15.80;94.40;;;;;;5070593;28;20051;-84
2021/05/09 06:32:52;;;;;;;4.00;1.88;;;15.90;94.10;;;;;;5072428;28;20043;-84
2021/05/09 06:35:38;;;;;;;4.45;3.03;;;16.10;94.00;;;;;;5062531;28;20038;-84
2021/05/09 06:38:08;;;;;;;4.38;2.33;;;16.30;93.50;;;;;;5060968;28;20055;-84
2021/05/09 06:40:36;;;;;;;5.55;2.45;;;16.60;92.90;;;;;;5022362;27;20043;-85
2021/05/09 06:43:09;;;;;;;4.25;2.50;;;16.80;92.30;;;;;;5055872;28;20031;-84
2021/05/09 06:45:35;;;;;;;3.80;2.60;;;17.10;91.50;;;;;;5072015;27;20041;-86
2021/05/09 06:48:11;;;;;;;6.10;2.70;;;17.40;91.30;;;;;;5086332;28;20452;-84
2021/05/09 06:50:37;;;;;;;4.20;2.70;;;17.70;90.40;;;;;;5069281;28;20141;-84
2021/05/09 06:53:06;;;;;;;3.80;2.05;;;18.00;88.70;;;;;;5055756;28;20091;-84
2021/05/09 06:55:34;;;;;;;3.83;2.13;;;18.20;87.80;;;;;;5072042;28;20120;-84
2021/05/09 06:58:02;;;;;;;6.15;2.53;;;18.30;87.20;;;;;;5057279;28;20031;-84
2021/05/09 07:00:32;;;;;;;3.45;2.05;;;18.40;86.40;;;;;;5067187;28;20059;-84
2021/05/09 07:02:58;;;;;;;2.92;1.70;;;18.40;85.30;;;;;;5037347;28;20486;-84
2021/05/09 07:05:25;;;;;;;4.38;1.92;;;18.40;85.30;;;;;;5052809;28;20521;-84
2021/05/09 07:07:53;;;;;;;4.55;1.45;;;18.40;84.60;;;;;;5038727;28;20466;-85
2021/05/09 07:10:21;;;;;;;3.17;1.48;;;18.40;84.60;;;;;;5035792;28;20052;-85
2021/05/09 07:12:49;;;;;;;2.63;1.02;;;18.40;84.90;;;;;;5054857;28;20046;-85
2021/05/09 07:15:24;;;;;;;2.35;1.48;;;18.50;85.20;;;;;;5049340;28;20051;-84
2021/05/09 07:18:05;;;;;;;2.58;1.58;;;18.50;84.20;;;;;;5078938;28;20051;-85
2021/05/09 07:20:34;;;;;;;4.18;1.83;;;18.50;82.90;;;;;;5035062;28;20178;-84
2021/05/09 07:23:01;;;;;;;2.55;1.40;;;18.50;82.60;;;;;;5037214;28;20059;-84
2021/05/09 07:25:28;;;;;;;4.05;1.38;;;18.50;82.60;;;;;;5036851;28;20044;-85
2021/05/09 07:28:07;;;;;;;2.65;1.45;;;18.60;83.00;;;;;;5036046;28;20086;-85
2021/05/09 07:30:34;;;;;;;2.53;1.35;;;18.80;83.30;;;;;;5072918;28;20059;-84
2021/05/09 07:33:01;;;;;;;5.18;1.85;;;19.00;82.10;;;;;;5042345;28;20036;-84
2021/05/09 07:35:28;;;;;;;2.65;1.55;;;19.30;81.50;;;;;;5062011;28;20043;-85
2021/05/09 07:37:54;;;;;;;3.95;1.35;;;19.40;79.80;;;;;;5046117;28;20050;-85
2021/05/09 07:40:22;;;;;;;3.10;1.00;;;19.50;79.00;;;;;;5043218;28;20039;-84
2021/05/09 07:42:48;;;;;;;2.53;1.27;;;19.60;77.80;;;;;;5043606;28;20048;-85
2021/05/09 07:45:23;;;;;;;2.28;1.15;;;19.60;77.80;;;;;;5065255;28;20036;-86
2021/05/09 07:47:53;;;;;;;2.40;1.10;;;19.50;78.10;;;;;;5066867;28;20031;-86
2021/05/09 07:50:21;;;;;;;1.52;0.98;;;19.50;79.10;;;;;;5051608;28;20047;-86
2021/05/09 07:52:49;;;;;;;2.60;1.08;;;19.50;78.70;;;;;;5041950;28;20051;-84
2021/05/09 07:55:16;;;;;;;4.63;1.00;;;19.50;79.10;;;;;;5030609;28;20051;-86
2021/05/09 07:57:44;;;;;;;1.42;0.60;;;19.70;78.70;;;;;;5056847;28;20048;-85
2021/05/09 08:00:13;;;;;;;2.33;1.25;;;20.00;78.90;;;;;;5037113;28;20039;-85
2021/05/09 08:02:45;;;;;;;4.28;1.85;;;20.30;77.10;;;;;;5031044;28;20047;-86
2021/05/09 08:05:13;;;;;;;2.15;1.10;;;20.60;74.90;;;;;;5054795;28;20039;-86
2021/05/09 08:07:49;;;;;;;3.03;1.30;;;20.80;74.50;;;;;;5075299;28;20615;-86
2021/05/09 08:10:16;;;;;;;2.90;1.30;;;21.00;73.40;;;;;;5062121;28;20051;-87
2021/05/09 08:12:43;;;;;;;2.20;0.98;;;21.10;73.70;;;;;;5046090;28;20031;-86
2021/05/09 08:15:10;;;;;;;2.70;1.30;;;21.20;73.10;;;;;;5041219;28;20031;-87
2021/05/09 08:17:36;;;;;;;1.88;1.00;;;21.30;73.10;;;;;;5059272;28;20413;-86
2021/05/09 08:20:05;;;;;;;2.10;0.90;;;21.40;71.60;;;;;;5041282;28;20036;-86
2021/05/09 08:22:31;;;;;;;2.65;0.88;;;21.50;71.40;;;;;;5069642;28;20047;-85
2021/05/09 08:24:59;;;;;;;1.63;0.70;;;21.80;71.20;;;;;;5035087;28;20040;-87
2021/05/09 08:27:32;;;;;;;1.13;0.60;;;22.00;70.40;;;;;;5054695;28;20055;-86
2021/05/09 08:30:00;;;;;;;3.13;1.00;;;22.20;67.00;;;;;;5047244;28;20138;-86
2021/05/09 08:32:29;;;;;;;2.13;1.00;;;22.20;66.50;;;;;;5049700;28;20036;-87
2021/05/09 08:34:58;;;;;;;1.42;0.60;;;22.00;65.50;;;;;;5057601;28;20056;-88
2021/05/09 08:37:25;;;;;;;1.85;1.05;;;21.80;65.50;;;;;;5038159;28;20032;-84
2021/05/09 08:39:52;;;;;;;1.58;0.60;;;21.80;64.50;;;;;;5072124;28;20491;-83
2021/05/09 08:42:20;;;;;;;2.05;0.70;;;21.80;65.60;;;;;;5081114;28;20047;-84
2021/05/09 08:44:48;;;;;;;3.20;1.15;;;21.80;66.20;;;;;;5055764;28;20052;-84
2021/05/09 08:47:20;;;;;;;2.22;0.80;;;21.80;66.80;;;;;;5042357;28;20067;-84
2021/05/09 08:49:49;;;;;;;2.58;0.93;;;21.90;67.60;;;;;;5040154;28;20040;-84
2021/05/09 08:52:18;;;;;;;4.43;1.20;;;22.00;67.30;;;;;;5056921;28;20040;-84
2021/05/09 08:54:45;;;;;;;2.83;0.85;;;22.10;67.00;;;;;;5038173;28;20391;-84
2021/05/09 08:57:12;;;;;;;1.52;0.88;;;22.20;67.80;;;;;;5033323;28;20036;-86
2021/05/09 08:59:38;;;;;;;2.08;0.90;;;22.40;67.10;;;;;;5039600;28;20039;-87
2021/05/09 09:02:05;;;;;;;2.90;0.80;;;22.60;68.20;;;;;;5071680;28;20058;-87
2021/05/09 09:04:53;;;;;;;2.10;1.10;;;22.70;67.60;;;;;;5056132;28;20036;-88
2021/05/09 09:07:20;;;;;;;2.05;0.80;;;22.80;67.90;;;;;;5067423;28;20047;-81
2021/05/09 09:09:51;;;;;;;2.72;0.95;;;22.90;67.80;;;;;;5058431;27;20044;-81
2021/05/09 09:12:20;;;;;;;2.05;0.60;;;23.00;67.90;;;;;;5087639;28;20058;-80
2021/05/09 09:14:59;;;;;;;2.60;1.02;;;23.10;68.60;;;;;;5071137;28;20477;-79
2021/05/09 09:17:26;;;;;;;3.28;0.88;;;23.30;67.30;;;;;;5069202;28;20047;-79
2021/05/09 09:20:14;;;;;;;10.35;1.00;;;23.50;66.90;;;;;;5070615;28;20063;-80
2021/05/09 09:22:57;;;;;;;2.47;0.90;;;23.60;66.60;;;;;;5052724;28;20048;-80
2021/05/09 09:25:28;;;;;;;3.13;1.20;;;23.60;66.20;;;;;;5104923;27;20039;-79
2021/05/09 09:27:56;;;;;;;3.42;1.15;;;23.50;66.00;;;;;;5071685;27;20027;-80
2021/05/09 09:30:28;;;;;;;3.55;0.90;;;23.40;66.00;;;;;;5049602;27;20039;-80
2021/05/09 09:33:11;;;;;;;2.83;0.95;;;23.40;66.80;;;;;;5067456;27;20054;-79
2021/05/09 09:35:39;;;;;;;2.70;0.90;;;23.60;67.70;;;;;;5108013;27;20901;-79
2021/05/09 09:38:26;;;;;;;3.13;1.60;;;23.90;67.30;;;;;;5070030;28;20490;-80
2021/05/09 09:41:09;;;;;;;3.17;1.30;;;24.10;67.00;;;;;;5082413;28;20035;-80
2021/05/09 09:43:36;;;;;;;4.30;1.52;;;24.20;65.30;;;;;;5069118;28;20497;-80
2021/05/09 09:46:04;;;;;;;4.43;1.70;;;24.40;64.90;;;;;;5071882;28;20027;-81
2021/05/09 09:48:41;;;;;;;2.67;1.00;;;24.40;64.10;;;;;;5087033;28;20524;-81
2021/05/09 09:51:08;;;;;;;1.55;0.90;;;24.20;64.60;;;;;;5086296;28;20050;-80
2021/05/09 09:53:39;;;;;;;2.45;1.20;;;24.10;65.50;;;;;;5107276;27;20059;-82
2021/05/09 09:56:31;;;;;;;2.67;1.25;;;24.10;65.90;;;;;;5058775;28;20036;-82
2021/05/09 09:58:59;;;;;;;4.15;0.90;;;24.20;66.30;;;;;;5063020;27;20039;-83
2021/05/09 10:01:32;;;;;;;5.00;1.20;;;24.10;65.30;;;;;;5071941;28;20039;-82
2021/05/09 10:04:00;;;;;;;2.75;1.30;;;23.90;64.50;;;;;;5087411;27;20035;-82
2021/05/09 10:06:28;;;;;;;3.95;1.33;;;23.80;64.80;;;;;;5074136;27;20043;-82
2021/05/09 10:08:58;;;;;;;4.47;0.90;;;23.70;65.60;;;;;;5086898;27;20044;-82
2021/05/09 10:11:30;;;;;;;1.52;0.57;;;23.70;66.20;;;;;;5085661;28;20051;-82
2021/05/09 10:14:00;;;;;;;2.47;1.23;;;23.80;66.60;;;;;;5102609;27;20047;-82
2021/05/09 10:16:30;;;;;;;2.25;0.80;;;24.00;66.00;;;;;;5074290;28;20035;-82
2021/05/09 10:19:02;;;;;;;2.47;0.80;;;24.20;65.60;;;;;;5101629;27;20048;-82
2021/05/09 10:21:34;;;;;;;2.30;0.70;;;24.40;65.70;;;;;;5068934;27;20032;-82
2021/05/09 10:24:17;;;;;;;3.30;0.75;;;24.70;65.90;;;;;;5071535;28;20039;-82
2021/05/09 10:26:53;;;;;;;6.20;1.10;;;25.00;65.50;;;;;;5073586;28;20035;-82
2021/05/09 10:32:21;;;;;;;1.80;0.80;;;25.60;63.90;;;;;;5068103;27;20402;-79
2021/05/09 10:34:55;;;;;;;1.98;0.80;;;25.90;63.60;;;;;;5081217;28;20035;-83
2021/05/09 10:40:26;;;;;;;2.45;0.80;;;26.30;59.90;;;;;;5086123;27;20043;-87
2021/05/09 10:43:02;;;;;;;1.90;0.57;;;26.20;59.10;;;;;;5090095;28;20032;-88
2021/05/09 10:45:35;;;;;;;4.00;0.90;;;26.20;60.40;;;;;;5054089;28;20035;-89
2021/05/09 10:48:15;;;;;;;1.50;0.60;;;26.40;59.70;;;;;;5056580;28;20048;-88
2021/05/09 10:50:43;;;;;;;3.33;0.70;;;26.60;58.60;;;;;;5063138;28;20042;-90
2021/05/09 10:53:36;;;;;;;1.92;0.80;;;26.90;58.30;;;;;;5054096;27;20059;-91
2021/05/09 10:56:04;;;;;;;1.90;0.70;;;27.20;57.80;;;;;;5065421;27;20399;-89
2021/05/09 10:58:51;;;;;;;1.98;0.73;;;27.40;57.30;;;;;;5039262;27;20386;-89
2021/05/09 11:01:23;;;;;;;2.85;0.80;;;27.20;56.30;;;;;;5066361;28;20394;-91
2021/05/09 11:04:04;;;;;;;1.85;0.57;;;26.90;57.30;;;;;;5036840;28;20055;-90
2021/05/09 11:06:45;;;;;;;2.75;0.90;;;26.70;58.10;;;;;;5060059;27;20039;-89
2021/05/09 11:09:14;;;;;;;1.88;0.63;;;26.40;58.50;;;;;;5049992;28;20028;-90
2021/05/09 11:11:40;;;;;;;2.15;0.70;;;26.10;59.20;;;;;;5053502;28;20040;-90
2021/05/09 11:14:13;;;;;;;1.83;0.70;;;25.80;60.00;;;;;;5051504;28;20044;-88
2021/05/09 11:16:42;;;;;;;2.20;0.60;;;25.60;60.70;;;;;;5076343;28;20044;-88
2021/05/09 11:19:14;;;;;;;3.15;0.70;;;25.30;61.50;;;;;;5044267;28;20083;-88
2021/05/09 11:21:49;;;;;;;2.95;1.08;;;25.10;61.50;;;;;;5051584;28;20467;-90
2021/05/09 11:24:22;;;;;;;1.83;0.70;;;25.00;62.30;;;;;;5039739;28;20037;-89
2021/05/09 11:26:51;;;;;;;3.72;1.30;;;24.90;62.30;;;;;;5048860;28;20487;-88
2021/05/09 11:29:20;;;;;;;2.97;0.60;;;24.70;61.90;;;;;;5066245;28;20044;-89
2021/05/09 11:31:54;;;;;;;3.28;0.93;;;24.60;62.30;;;;;;5042885;28;20044;-90
2021/05/09 11:34:22;;;;;;;1.95;0.90;;;24.50;62.80;;;;;;5073356;28;20039;-88
2021/05/09 11:36:51;;;;;;;3.15;0.80;;;24.50;63.10;;;;;;5046220;28;20035;-89
2021/05/09 11:39:19;;;;;;;6.43;1.08;;;24.50;63.40;;;;;;5060501;28;20047;-89
2021/05/09 11:41:55;;;;;;;2.63;0.70;;;24.60;63.40;;;;;;5036599;28;20036;-89
2021/05/09 11:44:46;;;;;;;2.10;0.85;;;24.70;63.40;;;;;;5041893;28;20047;-88
2021/05/09 11:47:21;;;;;;;2.20;0.82;;;24.80;63.10;;;;;;5073738;28;20406;-89
2021/05/09 11:49:48;;;;;;;3.25;0.80;;;24.80;63.10;;;;;;5054686;28;20062;-89
2021/05/09 11:52:20;;;;;;;2.78;0.90;;;24.80;63.00;;;;;;5039142;28;20036;-89
2021/05/09 11:54:52;;;;;;;4.75;1.15;;;24.80;63.00;;;;;;5035974;28;20048;-91
2021/05/09 11:57:24;;;;;;;4.03;0.90;;;24.80;63.30;;;;;;5038752;28;20039;-88
2021/05/09 11:59:51;;;;;;;3.13;1.23;;;24.70;63.00;;;;;;5041051;28;20043;-90
2021/05/09 12:02:20;;;;;;;2.38;1.00;;;24.60;63.20;;;;;;5038592;28;20040;-89
2021/05/09 12:05:06;;;;;;;4.85;1.17;;;24.50;63.80;;;;;;5038550;28;20040;-89
2021/05/09 12:07:40;;;;;;;2.50;0.70;;;24.30;64.20;;;;;;5077133;28;20043;-89
2021/05/09 12:10:13;;;;;;;2.05;1.00;;;24.20;65.00;;;;;;5042804;28;20372;-88
2021/05/09 12:12:41;;;;;;;2.55;0.80;;;24.10;65.20;;;;;;5065475;28;20113;-89
2021/05/09 12:15:18;;;;;;;2.63;0.95;;;24.00;65.40;;;;;;5029615;28;20070;-89
2021/05/09 12:17:47;;;;;;;1.83;0.80;;;24.00;66.00;;;;;;5054189;28;20050;-89
2021/05/09 12:20:44;;;;;;;2.63;0.90;;;24.00;66.40;;;;;;5051850;28;20038;-89
2021/05/09 12:23:26;;;;;;;2.83;1.05;;;24.10;66.60;;;;;;5053336;28;20036;-89
2021/05/09 12:25:53;;;;;;;3.90;0.70;;;24.00;66.40;;;;;;5054019;28;20043;-90
2021/05/09 12:28:32;;;;;;;2.83;0.90;;;23.90;66.60;;;;;;5069194;28;20470;-81
2021/05/09 12:31:11;;;;;;;3.20;0.80;;;23.90;66.90;;;;;;5081254;28;20047;-83
2021/05/09 12:33:38;;;;;;;1.58;0.70;;;24.00;67.30;;;;;;5067036;28;20039;-82
2021/05/09 12:36:20;;;;;;;2.83;0.70;;;24.00;67.20;;;;;;5082018;28;20379;-85
2021/05/09 12:38:46;;;;;;;1.60;0.90;;;24.10;67.30;;;;;;5103446;28;20062;-81
2021/05/09 12:41:15;;;;;;;2.90;1.77;;;24.10;67.30;;;;;;5080887;28;20405;-81
2021/05/09 12:43:53;;;;;;;3.85;2.10;;;24.20;67.50;;;;;;5065808;28;20043;-79
2021/05/09 12:46:39;;;;;;;2.72;1.58;;;24.20;68.10;;;;;;5066502;28;20458;-78
2021/05/09 12:49:14;;;;;;;2.85;0.90;;;24.20;67.50;;;;;;5065789;28;20036;-79
2021/05/09 12:52:02;;;;;;;2.97;0.80;;;24.20;67.60;;;;;;5083699;28;20032;-79
2021/05/09 12:54:41;;;;;;;3.47;1.48;;;24.20;67.70;;;;;;5082228;28;20044;-82
2021/05/09 12:57:22;;;;;;;7.38;6.13;;;24.20;67.70;;;;;;5083743;28;20023;-83
2021/05/09 12:59:53;;;;;;;27.20;18.90;;;24.20;67.80;;;;;;5050902;28;20571;-81
2021/05/09 13:02:22;;;;;;;12.40;8.57;;;24.20;67.80;;;;;;5065759;28;20040;-82
2021/05/09 13:04:58;;;;;;;7.68;4.93;;;24.10;68.60;;;;;;5084786;28;20052;-87
2021/05/09 13:07:26;;;;;;;7.22;4.93;;;24.20;68.00;;;;;;5087132;28;20060;-88